Time;durP1;ratioP1;P1;durP2;ratioP2;P2;SDS_P1;SDS_P2;PMS_P1;PMS_P2;Temp;Humidity;BMP_temperature;BMP_pressure;BME280_temperature;BME280_humidity;BME280_pressure;Samples;Min_cycle;Max_cycle;Signal;HPM_P1;HPM_P2
2021/07/07 00:01:09;;;;;;;;;6.67;5.67;;;;;-149.00;100.00;66333.84;5102372;27;45346;-77
2021/07/07 00:03:34;;;;;;;;;5.33;5.33;;;;;-149.00;100.00;66333.84;5102389;27;45289;-77
2021/07/07 00:06:00;;;;;;;;;6.00;6.00;;;;;-149.00;100.00;66333.84;5102497;27;45726;-77
2021/07/07 00:08:25;;;;;;;;;6.00;5.67;;;;;-149.00;100.00;66333.84;5102131;27;45328;-77
2021/07/07 00:10:51;;;;;;;;;5.33;5.33;;;;;-149.00;100.00;66333.84;5102019;27;45493;-77
2021/07/07 00:13:16;;;;;;;;;4.00;4.00;;;;;-149.00;100.00;66333.84;5102199;27;45240;-77
2021/07/07 00:15:42;;;;;;;;;4.33;4.33;;;;;-149.00;100.00;66333.84;5102452;27;45224;-77
2021/07/07 00:18:10;;;;;;;;;6.33;5.00;;;;;-149.00;100.00;66333.84;5102248;27;45203;-77
2021/07/07 00:20:55;;;;;;;;;6.00;6.00;;;;;-149.00;100.00;66333.84;5083399;27;47360;-77
2021/07/07 00:23:26;;;;;;;;;5.67;5.67;;;;;-149.00;100.00;66333.84;5101819;27;45345;-77
2021/07/07 00:25:53;;;;;;;;;5.67;5.67;;;;;-149.00;100.00;66333.84;5102176;27;45313;-77
2021/07/07 00:28:19;;;;;;;;;7.00;5.00;;;;;-149.00;100.00;66333.84;5101286;27;45284;-77
2021/07/07 00:30:46;;;;;;;;;5.00;4.00;;;;;-149.00;100.00;66333.84;5101360;27;46585;-77
2021/07/07 00:33:12;;;;;;;;;5.67;5.00;;;;;-149.00;100.00;66333.84;5083521;27;45328;-77
2021/07/07 00:35:38;;;;;;;;;6.00;5.33;;;;;-149.00;100.00;66333.84;5083450;27;45323;-77
2021/07/07 00:38:03;;;;;;;;;4.33;4.00;;;;;-149.00;100.00;66333.84;5101821;27;45257;-77
2021/07/07 00:40:28;;;;;;;;;4.67;4.00;;;;;-149.00;100.00;66333.84;5101842;27;45987;-77
2021/07/07 00:42:54;;;;;;;;;5.00;5.00;;;;;-149.00;100.00;66333.84;5101617;27;45322;-77
2021/07/07 00:45:19;;;;;;;;;7.00;5.00;;;;;-149.00;100.00;66333.84;5102008;27;45272;-76
2021/07/07 00:47:46;;;;;;;;;6.00;5.00;;;;;-149.00;100.00;66333.84;5101692;27;45227;-77
2021/07/07 00:50:13;;;;;;;;;5.00;5.00;;;;;-149.00;100.00;66333.84;5101652;27;45984;-77
2021/07/07 00:52:39;;;;;;;;;6.00;5.00;;;;;-149.00;100.00;66333.84;5101522;27;45384;-77
2021/07/07 00:55:10;;;;;;;;;5.00;4.67;;;;;-149.00;100.00;66333.84;5101746;27;45347;-77
2021/07/07 00:57:35;;;;;;;;;4.67;4.33;;;;;-149.00;100.00;66333.84;5101331;27;45435;-76
2021/07/07 01:00:05;;;;;;;;;4.67;4.00;;;;;-149.00;100.00;66333.84;5101539;27;45234;-77
2021/07/07 01:02:35;;;;;;;;;5.67;5.33;;;;;-149.00;100.00;66333.84;5083165;27;46366;-77
2021/07/07 01:05:00;;;;;;;;;5.67;5.00;;;;;-149.00;100.00;66333.84;5101549;27;45263;-77
2021/07/07 01:07:26;;;;;;;;;5.00;5.00;;;;;-149.00;100.00;66333.84;5082738;27;46151;-77
2021/07/07 01:09:51;;;;;;;;;6.67;5.00;;;;;-149.00;100.00;66333.84;5101296;27;46502;-77
2021/07/07 01:12:16;;;;;;;;;4.00;4.00;;;;;-149.00;100.00;66333.84;5101239;27;45251;-77
2021/07/07 01:14:42;;;;;;;;;4.00;4.00;;;;;-149.00;100.00;66333.84;5101478;27;45257;-77
2021/07/07 01:17:07;;;;;;;;;4.00;4.00;;;;;-149.00;100.00;66333.84;5101298;27;45258;-77
2021/07/07 01:19:32;;;;;;;;;4.00;4.00;;;;;-149.00;100.00;66333.84;5101154;27;46193;-76
2021/07/07 01:21:58;;;;;;;;;5.00;5.00;;;;;-149.00;100.00;66333.84;5101177;27;45454;-76
2021/07/07 01:24:23;;;;;;;;;7.00;6.33;;;;;-149.00;100.00;66333.84;5082928;27;45614;-76
2021/07/07 01:26:48;;;;;;;;;4.00;4.00;;;;;-149.00;100.00;66333.84;5100973;27;45262;-76
2021/07/07 01:29:15;;;;;;;;;4.33;4.33;;;;;-149.00;100.00;66333.84;5100915;27;45970;-77
2021/07/07 01:31:43;;;;;;;;;6.00;6.00;;;;;-149.00;100.00;66333.84;5100595;27;45441;-77
2021/07/07 01:34:09;;;;;;;;;5.00;4.00;;;;;-149.00;100.00;66333.84;5082568;27;45329;-77
2021/07/07 01:36:35;;;;;;;;;4.00;3.00;;;;;-149.00;100.00;66333.84;5100830;27;45275;-77
2021/07/07 01:39:04;;;;;;;;;6.33;6.33;;;;;-149.00;100.00;66333.84;5099731;27;45253;-78
2021/07/07 01:41:29;;;;;;;;;9.33;6.00;;;;;-149.00;100.00;66333.84;5082083;27;45389;-77
2021/07/07 01:43:54;;;;;;;;;7.00;7.00;;;;;-149.00;100.00;66333.84;5100801;27;45653;-77
2021/07/07 01:46:20;;;;;;;;;4.67;4.67;;;;;-149.00;100.00;66333.84;5100867;27;45393;-77
2021/07/07 01:48:45;;;;;;;;;4.67;4.67;;;;;-149.00;100.00;66333.84;5082369;27;48489;-77
2021/07/07 01:51:11;;;;;;;;;5.00;4.67;;;;;-149.00;100.00;66333.84;5100601;27;45580;-77
2021/07/07 01:53:37;;;;;;;;;5.33;3.67;;;;;-149.00;100.00;66333.84;5100893;27;45311;-77
2021/07/07 01:56:02;;;;;;;;;5.33;4.00;;;;;-149.00;100.00;66333.84;5100421;27;45386;-77
2021/07/07 01:58:28;;;;;;;;;4.67;4.67;;;;;-149.00;100.00;66333.84;5100596;27;45311;-77
2021/07/07 02:00:54;;;;;;;;;4.33;4.33;;;;;-149.00;100.00;66333.84;5100589;27;45270;-77
2021/07/07 02:03:19;;;;;;;;;3.00;2.00;;;;;-149.00;100.00;66333.84;5100739;27;45251;-76
2021/07/07 02:05:45;;;;;;;;;5.00;5.00;;;;;-149.00;100.00;66333.84;5100336;27;45557;-77
2021/07/07 02:08:10;;;;;;;;;5.67;5.00;;;;;-149.00;100.00;66333.84;5099926;27;46036;-77
2021/07/07 02:10:37;;;;;;;;;4.00;4.00;;;;;-149.00;100.00;66333.84;5100343;27;45224;-77
2021/07/07 02:13:11;;;;;;;;;5.67;5.00;;;;;-149.00;100.00;66333.84;5100463;27;45171;-77
2021/07/07 02:15:37;;;;;;;;;5.00;5.00;;;;;-149.00;100.00;66333.84;5100381;27;45314;-77
2021/07/07 02:18:05;;;;;;;;;4.00;4.00;;;;;-149.00;100.00;66333.84;5081763;27;47259;-77
2021/07/07 02:20:34;;;;;;;;;3.33;3.33;;;;;-149.00;100.00;66333.84;5100151;27;45511;-76
2021/07/07 02:22:59;;;;;;;;;5.33;5.00;;;;;-149.00;100.00;66333.84;5082005;27;45410;-77
2021/07/07 02:25:28;;;;;;;;;7.00;5.33;;;;;-149.00;100.00;66333.84;5081702;27;46259;-77
2021/07/07 02:27:54;;;;;;;;;4.33;4.33;;;;;-149.00;100.00;66333.84;5099873;27;46158;-77
2021/07/07 02:30:23;;;;;;;;;4.67;4.33;;;;;-149.00;100.00;66333.84;5081361;27;46194;-77
2021/07/07 02:32:50;;;;;;;;;5.33;5.33;;;;;-149.00;100.00;66333.84;5100075;27;45273;-77
2021/07/07 02:35:19;;;;;;;;;4.00;3.33;;;;;-149.00;100.00;66333.84;5100108;27;45282;-77
2021/07/07 02:37:50;;;;;;;;;5.00;4.67;;;;;-149.00;100.00;66333.84;5081371;27;47523;-77
2021/07/07 02:40:16;;;;;;;;;4.67;4.00;;;;;-149.00;100.00;66333.84;5100001;27;45292;-76
2021/07/07 02:42:43;;;;;;;;;5.00;4.00;;;;;-149.00;100.00;66333.84;5099985;27;45274;-77
2021/07/07 02:45:10;;;;;;;;;4.00;4.00;;;;;-149.00;100.00;66333.84;5099813;27;45294;-77
2021/07/07 02:47:36;;;;;;;;;5.00;4.67;;;;;-149.00;100.00;66333.84;5099896;27;46370;-76
2021/07/07 02:50:01;;;;;;;;;4.00;4.00;;;;;-149.00;100.00;66333.84;5100823;27;45319;-76
2021/07/07 02:52:27;;;;;;;;;5.67;4.67;;;;;-149.00;100.00;66333.84;5103568;27;45247;-76
2021/07/07 02:54:52;;;;;;;;;5.00;3.00;;;;;-149.00;100.00;66333.84;5102226;27;46095;-76
2021/07/07 02:57:17;;;;;;;;;4.33;4.33;;;;;-149.00;100.00;66333.84;5103057;27;46147;-77
2021/07/07 02:59:43;;;;;;;;;5.67;3.33;;;;;-149.00;100.00;66333.84;5103371;27;45375;-76
2021/07/07 03:02:09;;;;;;;;;3.67;3.00;;;;;-149.00;100.00;66333.84;5103695;27;45360;-77
2021/07/07 03:04:35;;;;;;;;;5.33;4.33;;;;;-149.00;100.00;66333.84;5103382;27;45317;-76
2021/07/07 03:07:01;;;;;;;;;3.67;3.67;;;;;-149.00;100.00;66333.84;5080925;28;47631;-76
2021/07/07 03:09:26;;;;;;;;;3.67;3.67;;;;;-149.00;100.00;66333.84;5082811;28;45350;-77
2021/07/07 03:11:51;;;;;;;;;5.33;5.00;;;;;-149.00;100.00;66333.84;5082581;28;45317;-76
2021/07/07 03:14:17;;;;;;;;;5.00;3.67;;;;;-149.00;100.00;66333.84;5064657;28;46140;-76
2021/07/07 03:16:42;;;;;;;;;4.67;4.33;;;;;-149.00;100.00;66333.84;5082788;28;45229;-76
2021/07/07 03:19:07;;;;;;;;;4.33;4.33;;;;;-149.00;100.00;66333.84;5082452;28;45383;-76
2021/07/07 03:21:33;;;;;;;;;6.67;4.00;;;;;-149.00;100.00;66333.84;5082620;28;45352;-77
2021/07/07 03:23:58;;;;;;;;;3.00;3.00;;;;;-149.00;100.00;66333.84;5082580;28;45844;-76
2021/07/07 03:26:23;;;;;;;;;7.00;6.00;;;;;-149.00;100.00;66333.84;5082330;28;46128;-76
2021/07/07 03:28:49;;;;;;;;;5.00;3.33;;;;;-149.00;100.00;66333.84;5064341;28;45563;-76
2021/07/07 03:31:14;;;;;;;;;6.33;4.33;;;;;-149.00;100.00;66333.84;5098802;27;45360;-76
2021/07/07 03:33:39;;;;;;;;;5.67;4.00;;;;;-149.00;100.00;66333.84;5102519;27;46098;-76
2021/07/07 03:36:05;;;;;;;;;3.00;3.00;;;;;-149.00;100.00;66333.84;5102630;27;45368;-76
2021/07/07 03:38:30;;;;;;;;;4.00;4.00;;;;;-149.00;100.00;66333.84;5102887;27;45406;-76
2021/07/07 03:40:56;;;;;;;;;6.67;6.67;;;;;-149.00;100.00;66333.84;5102826;27;45387;-77
2021/07/07 03:43:21;;;;;;;;;3.33;3.33;;;;;-149.00;100.00;66333.84;5084125;27;45894;-76
2021/07/07 03:45:47;;;;;;;;;5.67;4.00;;;;;-149.00;100.00;66333.84;5102657;27;45377;-76
2021/07/07 03:48:12;;;;;;;;;5.33;5.33;;;;;-149.00;100.00;66333.84;5102709;27;45361;-76
2021/07/07 03:50:38;;;;;;;;;3.67;3.67;;;;;-149.00;100.00;66333.84;5102730;27;45350;-76
2021/07/07 03:53:06;;;;;;;;;5.33;5.33;;;;;-149.00;100.00;66333.84;5102557;27;45289;-76
2021/07/07 03:55:33;;;;;;;;;3.00;3.00;;;;;-149.00;100.00;66333.84;5102573;27;45267;-76
2021/07/07 03:57:58;;;;;;;;;5.00;4.67;;;;;-149.00;100.00;66333.84;5102295;27;45429;-76
2021/07/07 04:00:26;;;;;;;;;4.00;3.00;;;;;-149.00;100.00;66333.84;5102669;27;45437;-76
2021/07/07 04:02:53;;;;;;;;;5.67;5.00;;;;;-149.00;100.00;66333.84;5101614;27;45342;-76
2021/07/07 04:05:19;;;;;;;;;4.33;4.33;;;;;-149.00;100.00;66333.84;5102439;27;45650;-76
2021/07/07 04:07:45;;;;;;;;;7.00;7.00;;;;;-149.00;100.00;66333.84;5083757;27;45338;-76
2021/07/07 04:10:12;;;;;;;;;4.33;4.00;;;;;-149.00;100.00;66333.84;5102453;27;45278;-76
2021/07/07 04:12:38;;;;;;;;;6.67;5.33;;;;;-149.00;100.00;66333.84;5102157;27;45372;-77
2021/07/07 04:15:05;;;;;;;;;6.67;6.67;;;;;-149.00;100.00;66333.84;5102159;27;45761;-76
2021/07/07 04:17:31;;;;;;;;;4.00;4.00;;;;;-149.00;100.00;66333.84;5102256;27;45381;-76
2021/07/07 04:19:56;;;;;;;;;6.00;4.67;;;;;-149.00;100.00;66333.84;5083506;27;45499;-76
2021/07/07 04:22:22;;;;;;;;;6.67;6.67;;;;;-149.00;100.00;66333.84;5102029;27;45519;-76
2021/07/07 04:24:47;;;;;;;;;7.00;5.00;;;;;-149.00;100.00;66333.84;5102108;27;45297;-76
2021/07/07 04:27:12;;;;;;;;;4.33;4.33;;;;;-149.00;100.00;66333.84;5101837;27;45294;-76
2021/07/07 04:29:38;;;;;;;;;7.00;6.00;;;;;-149.00;100.00;66333.84;5102201;27;45303;-76
2021/07/07 04:32:04;;;;;;;;;5.00;3.67;;;;;-149.00;100.00;66333.84;5101942;27;45235;-77
2021/07/07 04:34:29;;;;;;;;;6.33;4.33;;;;;-149.00;100.00;66333.84;5102004;27;45196;-76
2021/07/07 04:36:54;;;;;;;;;5.00;5.00;;;;;-149.00;100.00;66333.84;5101911;27;45251;-76
2021/07/07 04:39:20;;;;;;;;;4.00;4.00;;;;;-149.00;100.00;66333.84;5083763;27;45246;-77
2021/07/07 04:41:45;;;;;;;;;4.67;4.67;;;;;-149.00;100.00;66333.84;5101833;27;45303;-76
2021/07/07 04:44:10;;;;;;;;;4.67;4.67;;;;;-149.00;100.00;66333.84;5083517;27;47186;-76
2021/07/07 04:46:36;;;;;;;;;6.00;4.00;;;;;-149.00;100.00;66333.84;5102030;27;45288;-77
2021/07/07 04:49:02;;;;;;;;;3.67;3.33;;;;;-149.00;100.00;66333.84;5102102;27;45303;-76
2021/07/07 04:51:29;;;;;;;;;4.67;4.67;;;;;-149.00;100.00;66333.84;5101765;27;45371;-76
2021/07/07 04:53:54;;;;;;;;;6.00;6.00;;;;;-149.00;100.00;66333.84;5101624;27;45310;-77
2021/07/07 04:56:19;;;;;;;;;4.00;4.00;;;;;-149.00;100.00;66333.84;5101547;27;45380;-76
2021/07/07 04:58:45;;;;;;;;;5.33;5.33;;;;;-149.00;100.00;66333.84;5101795;27;45287;-76
2021/07/07 05:01:10;;;;;;;;;7.00;5.67;;;;;-149.00;100.00;66333.84;5101694;27;45516;-76
2021/07/07 05:03:36;;;;;;;;;7.33;6.67;;;;;-149.00;100.00;66333.84;5101750;27;45280;-77
2021/07/07 05:06:01;;;;;;;;;5.33;4.33;;;;;-149.00;100.00;66333.84;5101654;27;45296;-76
2021/07/07 05:08:27;;;;;;;;;9.00;7.00;;;;;-149.00;100.00;66333.84;5082967;27;45364;-75
2021/07/07 05:10:52;;;;;;;;;6.00;5.00;;;;;-149.00;100.00;66333.84;5082831;27;46279;-76
2021/07/07 05:13:18;;;;;;;;;4.67;3.33;;;;;-149.00;100.00;66333.84;5101421;27;45437;-75
2021/07/07 05:15:47;;;;;;;;;5.00;5.00;;;;;-149.00;100.00;66333.84;5101415;27;45298;-76
2021/07/07 05:18:12;;;;;;;;;6.00;6.00;;;;;-149.00;100.00;66333.84;5101494;27;45281;-76
2021/07/07 05:20:38;;;;;;;;;7.33;6.00;;;;;-149.00;100.00;66333.84;5101163;27;45501;-76
2021/07/07 05:23:07;;;;;;;;;7.00;6.00;;;;;-149.00;100.00;66333.84;5082670;27;48202;-76
2021/07/07 05:25:34;;;;;;;;;5.00;5.00;;;;;-149.00;100.00;66333.84;5101395;27;45330;-76
2021/07/07 05:28:01;;;;;;;;;4.00;3.67;;;;;-149.00;100.00;66333.84;5101280;27;45287;-75
2021/07/07 05:30:26;;;;;;;;;6.67;6.67;;;;;-149.00;100.00;66333.84;5100909;27;45224;-75
2021/07/07 05:32:52;;;;;;;;;5.67;5.67;;;;;-149.00;100.00;66333.84;5101110;27;45811;-75
2021/07/07 05:35:17;;;;;;;;;5.00;5.00;;;;;-149.00;100.00;66333.84;5101124;27;45218;-75
2021/07/07 05:37:43;;;;;;;;;5.00;5.00;;;;;-149.00;100.00;66333.84;5100975;27;45393;-75
2021/07/07 05:40:10;;;;;;;;;3.67;3.67;;;;;-149.00;100.00;66333.84;5101141;27;45499;-75
2021/07/07 05:42:35;;;;;;;;;6.00;6.00;;;;;-149.00;100.00;66333.84;5100733;27;45347;-75
2021/07/07 05:45:00;;;;;;;;;5.00;5.00;;;;;-149.00;100.00;66333.84;5101208;27;45331;-76
2021/07/07 05:47:26;;;;;;;;;8.33;5.67;;;;;-149.00;100.00;66333.84;5100883;27;45840;-77
2021/07/07 05:49:58;;;;;;;;;6.00;6.00;;;;;-149.00;100.00;66333.84;5100668;27;45320;-77
2021/07/07 05:52:27;;;;;;;;;4.33;3.67;;;;;-149.00;100.00;66333.84;5100090;27;45346;-78
2021/07/07 05:54:55;;;;;;;;;6.00;5.00;;;;;-149.00;100.00;66333.84;5100704;27;45315;-77
2021/07/07 05:57:24;;;;;;;;;6.00;5.00;;;;;-149.00;100.00;66333.84;5080128;27;46472;-78
2021/07/07 05:59:50;;;;;;;;;6.00;4.67;;;;;-149.00;100.00;66333.84;5098378;27;45570;-77
2021/07/07 06:02:15;;;;;;;;;4.67;4.67;;;;;-149.00;100.00;66333.84;5098406;27;46092;-77
2021/07/07 06:04:41;;;;;;;;;3.33;3.33;;;;;-149.00;100.00;66333.84;5098849;27;45341;-77
2021/07/07 06:07:07;;;;;;;;;5.00;4.67;;;;;-149.00;100.00;66333.84;5098699;27;45660;-77
2021/07/07 06:09:32;;;;;;;;;4.00;4.00;;;;;-149.00;100.00;66333.84;5080407;27;46197;-76
2021/07/07 06:11:57;;;;;;;;;4.00;4.00;;;;;-149.00;100.00;66333.84;5098355;27;46083;-76
2021/07/07 06:14:23;;;;;;;;;7.00;4.33;;;;;-149.00;100.00;66333.84;5098613;27;45272;-76
2021/07/07 06:16:50;;;;;;;;;4.00;3.67;;;;;-149.00;100.00;66333.84;5098904;27;45441;-77
2021/07/07 06:19:16;;;;;;;;;5.67;5.00;;;;;-149.00;100.00;66333.84;5098546;27;45321;-78
2021/07/07 06:21:41;;;;;;;;;6.00;4.67;;;;;-149.00;100.00;66333.84;5098336;27;45369;-79
2021/07/07 06:24:07;;;;;;;;;7.33;7.00;;;;;-149.00;100.00;66333.84;5079552;27;45854;-78
2021/07/07 06:26:34;;;;;;;;;5.00;5.00;;;;;-149.00;100.00;66333.84;5097785;27;45251;-80
2021/07/07 06:28:59;;;;;;;;;5.33;5.33;;;;;-149.00;100.00;66333.84;5097856;27;45353;-79
2021/07/07 06:31:25;;;;;;;;;6.00;5.33;;;;;-149.00;100.00;66333.84;5099124;27;46434;-79
2021/07/07 06:33:50;;;;;;;;;5.00;5.00;;;;;-149.00;100.00;66333.84;5081376;27;45365;-79
2021/07/07 06:36:16;;;;;;;;;7.00;5.33;;;;;-149.00;100.00;66333.84;5081820;27;45383;-78
2021/07/07 06:38:41;;;;;;;;;8.00;6.00;;;;;-149.00;100.00;66333.84;5081521;27;45709;-79
2021/07/07 06:41:07;;;;;;;;;8.67;8.00;;;;;-149.00;100.00;66333.84;5099107;27;46939;-78
2021/07/07 06:43:32;;;;;;;;;8.00;6.33;;;;;-149.00;100.00;66333.84;5099683;27;45319;-78
2021/07/07 06:45:58;;;;;;;;;6.67;5.00;;;;;-149.00;100.00;66333.84;5100140;27;45395;-78
2021/07/07 06:48:23;;;;;;;;;6.67;6.00;;;;;-149.00;100.00;66333.84;5099908;27;45223;-78
2021/07/07 06:50:49;;;;;;;;;8.00;6.33;;;;;-149.00;100.00;66333.84;5099702;27;45251;-78
2021/07/07 06:53:15;;;;;;;;;6.33;6.00;;;;;-149.00;100.00;66333.84;5100039;27;45240;-78
2021/07/07 06:55:40;;;;;;;;;9.67;9.00;;;;;-149.00;100.00;66333.84;5099871;27;45408;-79
2021/07/07 06:58:12;;;;;;;;;6.00;6.00;;;;;-149.00;100.00;66333.84;5099688;27;46157;-78
2021/07/07 07:00:37;;;;;;;;;6.00;6.00;;;;;-149.00;100.00;66333.84;5098785;27;46413;-78
2021/07/07 07:03:03;;;;;;;;;8.00;6.33;;;;;-149.00;100.00;66333.84;5080278;27;46048;-78
2021/07/07 07:05:28;;;;;;;;;8.33;6.33;;;;;-149.00;100.00;66333.84;5099728;27;45220;-79
2021/07/07 07:07:53;;;;;;;;;8.33;8.33;;;;;-149.00;100.00;66333.84;5099544;27;45452;-79
2021/07/07 07:10:19;;;;;;;;;7.00;7.00;;;;;-149.00;100.00;66333.84;5076667;27;46124;-79
2021/07/07 07:12:44;;;;;;;;;8.00;8.00;;;;;-149.00;100.00;66333.84;5078923;27;45265;-78
2021/07/07 07:15:13;;;;;;;;;7.67;7.67;;;;;-149.00;100.00;66333.84;5079016;28;45545;-78
2021/07/07 07:17:39;;;;;;;;;8.00;6.67;;;;;-149.00;100.00;66333.84;5079014;28;45356;-78
2021/07/07 07:20:07;;;;;;;;;9.00;8.00;;;;;-149.00;100.00;66333.84;5060235;28;46942;-78
2021/07/07 07:22:33;;;;;;;;;9.67;9.67;;;;;-149.00;100.00;66333.84;5073008;27;45367;-77
2021/07/07 07:24:59;;;;;;;;;7.00;4.00;;;;;-149.00;100.00;66333.84;5096748;27;45552;-76
2021/07/07 07:27:25;;;;;;;;;9.00;8.00;;;;;-149.00;100.00;66333.84;5097658;27;45403;-78
2021/07/07 07:29:50;;;;;;;;;9.00;8.00;;;;;-149.00;100.00;66333.84;5098260;27;45601;-78
2021/07/07 07:32:16;;;;;;;;;8.00;7.33;;;;;-149.00;100.00;66333.84;5098811;27;45249;-78
2021/07/07 07:34:41;;;;;;;;;7.00;7.00;;;;;-149.00;100.00;66333.84;5098792;27;45492;-79
2021/07/07 07:37:10;;;;;;;;;7.67;7.67;;;;;-149.00;100.00;66333.84;5099412;27;45566;-79
2021/07/07 07:39:41;;;;;;;;;9.00;8.00;;;;;-149.00;100.00;66333.84;5102117;27;46407;-77
2021/07/07 07:42:07;;;;;;;;;13.00;11.00;;;;;-149.00;100.00;66333.84;5102243;27;45510;-77
2021/07/07 07:44:32;;;;;;;;;8.33;7.33;;;;;-149.00;100.00;66333.84;5101423;27;45497;-78
2021/07/07 07:46:58;;;;;;;;;6.00;6.00;;;;;-149.00;100.00;66333.84;5083223;27;45431;-77
2021/07/07 07:49:25;;;;;;;;;7.00;7.00;;;;;-149.00;100.00;66333.84;5083925;27;47219;-79
2021/07/07 07:51:50;;;;;;;;;9.00;9.00;;;;;-149.00;100.00;66333.84;5102129;27;45333;-80
2021/07/07 07:54:16;;;;;;;;;7.67;6.67;;;;;-149.00;100.00;66333.84;5101283;27;45512;-83
2021/07/07 07:56:41;;;;;;;;;10.00;8.33;;;;;-149.00;100.00;66333.84;5083136;27;46285;-79
2021/07/07 07:59:07;;;;;;;;;8.00;7.33;;;;;-149.00;100.00;66333.84;5079104;28;48214;-79
2021/07/07 08:01:34;;;;;;;;;10.67;9.00;;;;;-149.00;100.00;66333.84;5082014;28;45343;-80
2021/07/07 08:04:00;;;;;;;;;8.00;7.67;;;;;-149.00;100.00;66333.84;5081063;28;45386;-78
2021/07/07 08:06:26;;;;;;;;;7.33;7.33;;;;;-149.00;100.00;66333.84;5081501;28;45308;-78
2021/07/07 08:08:53;;;;;;;;;6.67;6.67;;;;;-149.00;100.00;66333.84;5081642;28;46206;-78
2021/07/07 08:11:19;;;;;;;;;8.33;8.33;;;;;-149.00;100.00;66333.84;5063188;28;45347;-78
2021/07/07 08:13:44;;;;;;;;;10.00;9.00;;;;;-149.00;100.00;66333.84;5100525;27;45421;-79
2021/07/07 08:16:10;;;;;;;;;9.00;7.67;;;;;-149.00;100.00;66333.84;5101562;27;45388;-80
2021/07/07 08:18:35;;;;;;;;;8.67;7.67;;;;;-149.00;100.00;66333.84;5083613;27;48246;-80
2021/07/07 08:21:00;;;;;;;;;9.33;9.00;;;;;-149.00;100.00;66333.84;5101913;27;45409;-80
2021/07/07 08:23:26;;;;;;;;;12.67;10.00;;;;;-149.00;100.00;66333.84;5101851;27;45618;-80
2021/07/07 08:25:52;;;;;;;;;8.00;8.00;;;;;-149.00;100.00;66333.84;5101942;27;45386;-78
2021/07/07 08:28:18;;;;;;;;;9.00;8.33;;;;;-149.00;100.00;66333.84;5102187;27;46109;-79
2021/07/07 08:30:43;;;;;;;;;7.33;7.33;;;;;-149.00;100.00;66333.84;5101776;27;45306;-81
2021/07/07 08:33:08;;;;;;;;;7.00;7.00;;;;;-149.00;100.00;66333.84;5101860;27;45217;-78
2021/07/07 08:35:37;;;;;;;;;8.33;7.00;;;;;-149.00;100.00;66333.84;5083560;27;45581;-79
2021/07/07 08:38:03;;;;;;;;;6.00;6.00;;;;;-149.00;100.00;66333.84;5101197;27;45249;-78
2021/07/07 08:40:29;;;;;;;;;8.33;7.67;;;;;-149.00;100.00;66333.84;5101491;27;45547;-78
2021/07/07 08:42:56;;;;;;;;;6.33;6.33;;;;;-149.00;100.00;66333.84;5101852;27;45354;-79
2021/07/07 08:45:22;;;;;;;;;8.00;7.00;;;;;-149.00;100.00;66333.84;5101084;27;45983;-78
2021/07/07 08:47:49;;;;;;;;;8.00;8.00;;;;;-149.00;100.00;66333.84;5064770;27;46147;-78
2021/07/07 08:50:35;;;;;;;;;10.00;7.67;;;;;-149.00;100.00;66333.84;5100539;27;45372;-79
2021/07/07 08:53:02;;;;;;;;;11.00;11.00;;;;;-149.00;100.00;66333.84;5101391;27;45318;-78
2021/07/07 08:55:29;;;;;;;;;10.00;9.00;;;;;-149.00;100.00;66333.84;5100992;27;45414;-79
2021/07/07 08:57:55;;;;;;;;;7.33;6.33;;;;;-149.00;100.00;66333.84;5101263;27;45334;-78
2021/07/07 09:00:20;;;;;;;;;7.67;7.67;;;;;-149.00;100.00;66333.84;5101266;27;45301;-79
2021/07/07 09:03:08;;;;;;;;;7.67;6.00;;;;;-149.00;100.00;66333.84;5101462;27;45843;-78
2021/07/07 09:05:48;;;;;;;;;6.67;6.67;;;;;-149.00;100.00;66333.84;5082420;27;45336;-79
2021/07/07 09:08:14;;;;;;;;;8.33;8.00;;;;;-149.00;100.00;66333.84;5100710;27;45552;-78
2021/07/07 09:10:39;;;;;;;;;9.00;8.33;;;;;-149.00;100.00;66333.84;5100849;27;45328;-80
2021/07/07 09:13:12;;;;;;;;;8.00;7.00;;;;;-149.00;100.00;66333.84;5101391;27;45352;-78
2021/07/07 09:15:39;;;;;;;;;7.33;7.00;;;;;-149.00;100.00;66333.84;5101446;27;45481;-79
2021/07/07 09:18:04;;;;;;;;;9.00;9.00;;;;;-149.00;100.00;66333.84;5101141;27;46293;-79
2021/07/07 09:20:37;;;;;;;;;8.67;8.00;;;;;-149.00;100.00;66333.84;5100890;27;45547;-79
2021/07/07 09:23:18;;;;;;;;;7.67;7.67;;;;;-149.00;100.00;66333.84;5101016;27;45322;-79
2021/07/07 09:25:51;;;;;;;;;8.00;7.33;;;;;-149.00;100.00;66333.84;5100924;27;45233;-78
2021/07/07 09:28:19;;;;;;;;;7.00;7.00;;;;;-149.00;100.00;66333.84;5101116;27;45381;-79
2021/07/07 09:30:45;;;;;;;;;8.67;8.33;;;;;-149.00;100.00;66333.84;5080249;27;45905;-78
2021/07/07 09:33:11;;;;;;;;;8.67;8.67;;;;;-149.00;100.00;66333.84;5088366;27;45497;-78
2021/07/07 09:35:37;;;;;;;;;8.00;8.00;;;;;-149.00;100.00;66333.84;5089234;27;45254;-78
2021/07/07 09:38:05;;;;;;;;;7.00;6.67;;;;;-149.00;100.00;66333.84;5094870;27;46044;-79
2021/07/07 09:40:31;;;;;;;;;7.00;6.00;;;;;-149.00;100.00;66333.84;5093075;27;45400;-79
2021/07/07 09:42:56;;;;;;;;;11.00;7.00;;;;;-149.00;100.00;66333.84;5089260;27;45337;-79
2021/07/07 09:45:22;;;;;;;;;6.33;5.33;;;;;-149.00;100.00;66333.84;5089752;27;45239;-79
2021/07/07 09:47:48;;;;;;;;;8.00;8.00;;;;;-149.00;100.00;66333.84;5087815;27;45330;-80
2021/07/07 09:50:16;;;;;;;;;8.33;8.00;;;;;-149.00;100.00;66333.84;5081772;27;45277;-81
2021/07/07 09:52:42;;;;;;;;;7.00;7.00;;;;;-149.00;100.00;66333.84;5098718;27;45402;-81
2021/07/07 09:55:09;;;;;;;;;8.33;8.33;;;;;-149.00;100.00;66333.84;5098225;27;45484;-80
2021/07/07 09:57:46;;;;;;;;;10.33;9.67;;;;;-149.00;100.00;66333.84;5099876;27;46265;-82
2021/07/07 10:00:20;;;;;;;;;9.00;8.67;;;;;-149.00;100.00;66333.84;5098722;27;45619;-81
2021/07/07 10:02:51;;;;;;;;;10.33;9.33;;;;;-149.00;100.00;66333.84;5097555;27;45425;-81
2021/07/07 10:05:18;;;;;;;;;7.00;7.00;;;;;-149.00;100.00;66333.84;5098393;27;46507;-80
2021/07/07 10:07:45;;;;;;;;;6.00;6.00;;;;;-149.00;100.00;66333.84;5099282;27;45404;-81
2021/07/07 10:10:16;;;;;;;;;10.00;8.33;;;;;-149.00;100.00;66333.84;5099962;27;45375;-82
2021/07/07 10:12:46;;;;;;;;;10.00;10.00;;;;;-149.00;100.00;66333.84;5099355;27;45303;-82
2021/07/07 10:15:15;;;;;;;;;6.00;6.00;;;;;-149.00;100.00;66333.84;5062351;27;47079;-80
2021/07/07 10:17:42;;;;;;;;;7.33;6.33;;;;;-149.00;100.00;66333.84;5099269;27;46685;-82
2021/07/07 10:20:13;;;;;;;;;11.00;10.00;;;;;-149.00;100.00;66333.84;5096223;27;45578;-79
2021/07/07 10:22:38;;;;;;;;;7.67;6.67;;;;;-149.00;100.00;66333.84;5100122;27;45282;-81
2021/07/07 10:25:07;;;;;;;;;6.00;6.00;;;;;-149.00;100.00;66333.84;5100069;27;45413;-83
2021/07/07 10:27:35;;;;;;;;;6.33;6.33;;;;;-149.00;100.00;66333.84;5099925;27;46887;-81
2021/07/07 10:30:01;;;;;;;;;11.00;9.67;;;;;-149.00;100.00;66333.84;5100679;27;45315;-78
2021/07/07 10:32:29;;;;;;;;;9.33;7.67;;;;;-149.00;100.00;66333.84;5100050;27;45463;-80
2021/07/07 10:34:55;;;;;;;;;8.67;7.67;;;;;-149.00;100.00;66333.84;5099894;27;46243;-80
2021/07/07 10:37:23;;;;;;;;;7.67;7.67;;;;;-149.00;100.00;66333.84;5099912;27;45233;-81
2021/07/07 10:39:49;;;;;;;;;9.00;9.00;;;;;-149.00;100.00;66333.84;5100026;27;45392;-79
2021/07/07 10:42:15;;;;;;;;;6.67;6.67;;;;;-149.00;100.00;66333.84;5081505;27;45318;-78
2021/07/07 10:44:41;;;;;;;;;8.67;8.33;;;;;-149.00;100.00;66333.84;5099999;27;45413;-79
2021/07/07 10:47:15;;;;;;;;;8.67;7.67;;;;;-149.00;100.00;66333.84;5081938;27;46192;-78
2021/07/07 10:49:46;;;;;;;;;8.33;8.00;;;;;-149.00;100.00;66333.84;5100014;27;45313;-78
2021/07/07 10:52:17;;;;;;;;;9.33;7.67;;;;;-149.00;100.00;66333.84;5099377;27;45214;-78
2021/07/07 10:54:54;;;;;;;;;8.33;8.33;;;;;-149.00;100.00;66333.84;5100129;27;45480;-77
2021/07/07 10:57:25;;;;;;;;;8.00;8.00;;;;;-149.00;100.00;66333.84;5081890;27;47542;-78
2021/07/07 10:59:56;;;;;;;;;7.00;7.00;;;;;-149.00;100.00;66333.84;5101306;27;45302;-78
2021/07/07 11:02:22;;;;;;;;;6.67;5.33;;;;;-149.00;100.00;66333.84;5083186;27;45330;-79
2021/07/07 11:04:50;;;;;;;;;7.00;7.00;;;;;-149.00;100.00;66333.84;5099796;27;45583;-82
2021/07/07 11:07:26;;;;;;;;;9.33;7.67;;;;;-149.00;100.00;66333.84;5086623;27;46906;-83